createdAt,value
2023-03-19T00:02:17.484Z,9.09
2023-03-19T00:07:22.337Z,9.07
2023-03-19T00:12:24.148Z,9.05
2023-03-19T00:17:26.056Z,9.06
2023-03-19T00:22:28.079Z,9.06
2023-03-19T00:27:29.948Z,9.05
2023-03-19T00:32:33.688Z,9.04
2023-03-19T00:37:36.495Z,9.03
2023-03-19T00:42:38.492Z,9.03
2023-03-19T00:47:40.710Z,9.02
2023-03-19T00:52:42.806Z,9.02
2023-03-19T00:59:05.666Z,9.01
2023-03-19T01:04:07.875Z,8.95
2023-03-19T01:09:10.450Z,8.95
2023-03-19T01:14:12.872Z,8.94
2023-03-19T01:19:15.968Z,8.94
2023-03-19T01:24:18.120Z,8.91
2023-03-19T01:29:23.394Z,8.90
2023-03-19T01:34:28.488Z,8.88
2023-03-19T01:39:37.170Z,8.86
2023-03-19T01:44:45.129Z,8.83
2023-03-19T01:50:28.828Z,8.80
2023-03-19T01:56:03.595Z,8.76
2023-03-19T02:01:29.755Z,8.76
2023-03-19T02:06:33.193Z,8.74
2023-03-19T02:11:36.848Z,8.73
2023-03-19T02:16:39.728Z,8.71
2023-03-19T02:21:41.836Z,8.73
2023-03-19T02:26:45.546Z,8.71
2023-03-19T02:31:47.886Z,8.71
2023-03-19T02:37:03.816Z,8.73
2023-03-19T02:42:06.374Z,8.69
2023-03-19T02:47:10.399Z,8.65
2023-03-19T02:52:12.714Z,8.65
2023-03-19T02:57:15.896Z,8.64
2023-03-19T03:02:18.209Z,8.59
2023-03-19T03:07:23.220Z,8.58
2023-03-19T03:12:25.378Z,8.52
2023-03-19T03:17:27.405Z,8.49
2023-03-19T03:22:29.275Z,8.46
2023-03-19T03:27:31.540Z,8.44
2023-03-19T03:32:33.614Z,8.44
2023-03-19T03:37:37.417Z,8.40
2023-03-19T03:42:39.310Z,8.34
2023-03-19T03:47:43.793Z,8.29
2023-03-19T03:52:46.229Z,8.23
2023-03-19T03:57:48.112Z,8.18
2023-03-19T04:02:51.084Z,8.11
2023-03-19T04:07:53.326Z,8.07
2023-03-19T04:12:56.268Z,8.05
2023-03-19T04:17:58.475Z,8.02
2023-03-19T04:23:00.571Z,8.00
2023-03-19T04:28:03.944Z,7.97
2023-03-19T04:33:07.498Z,7.95
2023-03-19T04:38:09.525Z,7.90
2023-03-19T04:43:12.602Z,7.90
2023-03-19T04:48:17.384Z,7.88
2023-03-19T04:53:23.507Z,7.84
2023-03-19T04:58:25.732Z,7.79
2023-03-19T05:03:34.158Z,7.77
2023-03-19T05:08:36.813Z,7.73
2023-03-19T05:13:38.969Z,7.65
2023-03-19T05:18:41.430Z,7.61
2023-03-19T05:23:44.138Z,7.57
2023-03-19T05:28:46.359Z,7.55
2023-03-19T05:33:51.346Z,7.54
2023-03-19T05:38:54.047Z,7.52
2023-03-19T05:44:04.329Z,7.53
2023-03-19T05:49:26.661Z,7.54
2023-03-19T06:05:30.136Z,7.68
2023-03-19T06:10:38.512Z,7.74
2023-03-19T06:15:45.768Z,7.79
2023-03-19T06:20:58.548Z,7.87
2023-03-19T06:26:01.038Z,7.91
2023-03-19T06:31:08.948Z,7.93
2023-03-19T06:36:34.691Z,7.98
2023-03-19T06:41:38.939Z,8.07
2023-03-19T06:46:49.081Z,8.14
2023-03-19T06:51:51.673Z,8.20
2023-03-19T06:56:56.626Z,8.26
2023-03-19T07:01:58.441Z,8.34
2023-03-19T07:07:02.783Z,8.48
2023-03-19T07:12:04.914Z,8.57
2023-03-19T07:17:09.149Z,8.65
2023-03-19T07:22:12.333Z,8.74
2023-03-19T07:27:14.398Z,8.79
2023-03-19T07:32:16.399Z,8.87
2023-03-19T07:37:19.672Z,8.94
2023-03-19T07:42:23.197Z,9.00
2023-03-19T07:47:29.301Z,9.14
2023-03-19T07:52:31.629Z,9.28
2023-03-19T07:57:33.454Z,9.41
2023-03-19T08:02:35.233Z,9.56
2023-03-19T08:07:40.529Z,9.66
2023-03-19T08:12:42.833Z,9.80
2023-03-19T08:17:44.886Z,9.90
2023-03-19T08:22:52.528Z,10.05
2023-03-19T08:27:54.491Z,10.15
2023-03-19T08:32:56.936Z,10.18
2023-03-19T08:37:59.082Z,10.20
2023-03-19T08:43:01.588Z,10.24
2023-03-19T08:48:04.223Z,10.32
2023-03-19T08:58:45.872Z,10.67
2023-03-19T09:03:47.922Z,10.77
2023-03-19T09:08:49.964Z,10.86
2023-03-19T09:13:51.978Z,11.01
2023-03-19T09:18:53.823Z,11.15
2023-03-19T09:23:55.754Z,11.30
2023-03-19T09:28:57.887Z,11.45
2023-03-19T09:34:02.270Z,11.56
2023-03-19T09:45:21.352Z,11.76
2023-03-19T09:50:26.405Z,11.82
2023-03-19T09:55:49.960Z,11.90
2023-03-19T10:00:55.803Z,12.08
2023-03-19T10:06:12.711Z,12.25
2023-03-19T10:11:40.233Z,12.40
2023-03-19T10:16:46.947Z,12.61
2023-03-19T10:21:57.818Z,12.70
2023-03-19T10:27:05.988Z,12.79
2023-03-19T10:32:21.444Z,12.77
2023-03-19T10:37:35.769Z,12.72
2023-03-19T10:43:13.704Z,12.80
2023-03-19T10:48:18.112Z,12.94
2023-03-19T10:53:36.667Z,12.94
2023-03-19T10:58:40.565Z,12.98
2023-03-19T11:03:48.585Z,13.09
2023-03-19T11:09:00.155Z,13.19
2023-03-19T11:14:39.249Z,13.23
2023-03-19T11:19:52.375Z,13.26
2023-03-19T11:24:58.035Z,13.30
2023-03-19T11:30:00.194Z,13.43
2023-03-19T11:35:10.772Z,13.56
2023-03-19T11:40:15.780Z,13.58
2023-03-19T11:46:19.593Z,13.61
2023-03-19T11:51:36.397Z,13.59
2023-03-19T11:56:47.261Z,13.56
2023-03-19T12:01:49.293Z,13.55
2023-03-19T12:07:10.354Z,13.57
2023-03-19T12:12:26.822Z,13.59
2023-03-19T12:18:06.089Z,13.60
2023-03-19T12:23:28.323Z,13.66
2023-03-19T12:28:35.943Z,13.72
2023-03-19T12:47:04.765Z,13.99
2023-03-19T12:52:45.300Z,14.01
2023-03-19T12:58:58.580Z,14.07
2023-03-19T13:30:13.624Z,14.12
2023-03-19T13:35:36.636Z,14.16
2023-03-19T13:40:41.863Z,14.13
2023-03-19T13:45:44.521Z,14.11
2023-03-19T13:51:00.863Z,14.10
2023-03-19T13:56:28.652Z,14.15
2023-03-19T14:01:31.582Z,14.18
2023-03-19T14:06:36.801Z,14.22
2023-03-19T14:11:38.901Z,14.26
2023-03-19T14:16:48.984Z,14.26
2023-03-19T14:22:00.129Z,14.25
2023-03-19T14:27:16.258Z,14.25
2023-03-19T14:32:23.331Z,14.25
2023-03-19T14:37:29.960Z,14.29
2023-03-19T14:42:40.181Z,14.31
2023-03-19T14:47:48.146Z,14.37
2023-03-19T14:53:14.822Z,14.39
2023-03-19T14:58:19.310Z,14.41
2023-03-19T15:03:33.815Z,14.43
2023-03-19T15:08:39.773Z,14.42
2023-03-19T15:13:59.977Z,14.42
2023-03-19T15:19:02.226Z,14.38
2023-03-19T15:24:04.908Z,14.36
2023-03-19T15:29:12.079Z,14.32
2023-03-19T15:34:19.698Z,14.26
2023-03-19T15:39:27.414Z,14.19
2023-03-19T15:44:39.486Z,14.11
2023-03-19T15:49:49.113Z,14.04
2023-03-19T15:54:54.813Z,13.98
2023-03-19T16:00:00.794Z,13.94
2023-03-19T16:05:20.845Z,13.88
2023-03-19T16:10:33.274Z,13.81
2023-03-19T16:15:47.660Z,13.77
2023-03-19T16:21:28.267Z,13.73
2023-03-19T16:26:41.096Z,13.65
2023-03-19T16:31:46.523Z,13.57
2023-03-19T16:36:50.478Z,13.49
2023-03-19T16:42:26.482Z,13.39
2023-03-19T16:47:28.293Z,13.29
2023-03-19T16:52:30.337Z,13.24
2023-03-19T16:57:32.821Z,13.19
2023-03-19T17:02:34.669Z,13.17
2023-03-19T17:07:36.506Z,13.11
2023-03-19T17:12:38.525Z,13.08
2023-03-19T17:17:40.617Z,13.04
2023-03-19T17:22:42.429Z,13.01
2023-03-19T17:27:45.691Z,12.96
2023-03-19T17:32:49.926Z,12.89
2023-03-19T17:37:52.675Z,12.84
2023-03-19T17:42:56.218Z,12.82
2023-03-19T17:47:58.727Z,12.78
2023-03-19T17:53:00.771Z,12.73
2023-03-19T17:58:02.598Z,12.67
2023-03-19T18:03:04.432Z,12.61
2023-03-19T18:08:06.530Z,12.58
2023-03-19T18:13:09.188Z,12.54
2023-03-19T18:18:18.083Z,12.52
2023-03-19T18:23:20.198Z,12.49
2023-03-19T18:28:22.195Z,12.49
2023-03-19T18:33:29.061Z,12.43
2023-03-19T18:38:31.016Z,12.38
2023-03-19T18:43:32.785Z,12.36
2023-03-19T18:48:35.808Z,12.32
2023-03-19T18:53:38.502Z,12.30
2023-03-19T18:58:41.100Z,12.28
2023-03-19T19:03:45.853Z,12.28
2023-03-19T19:08:48.015Z,12.27
2023-03-19T19:14:00.165Z,12.27
2023-03-19T19:19:16.494Z,12.26
2023-03-19T19:24:18.334Z,12.26
2023-03-19T19:29:29.627Z,12.26
2023-03-19T19:34:31.791Z,12.24
2023-03-19T19:39:33.775Z,12.23
2023-03-19T19:44:35.802Z,12.22
2023-03-19T19:49:37.901Z,12.20
2023-03-19T19:54:39.931Z,12.18
2023-03-19T19:59:41.946Z,12.17
2023-03-19T20:04:43.686Z,12.16
2023-03-19T20:09:45.842Z,12.16
2023-03-19T20:14:48.942Z,12.15
2023-03-19T20:19:51.379Z,12.12
2023-03-19T20:24:53.133Z,12.09
2023-03-19T20:29:54.920Z,12.07
2023-03-19T20:34:57.818Z,12.05
2023-03-19T20:40:00.136Z,12.05
2023-03-19T20:45:02.430Z,12.02
2023-03-19T20:50:04.692Z,11.99
2023-03-19T20:55:07.447Z,11.97
2023-03-19T21:00:29.739Z,11.96
2023-03-19T21:05:36.686Z,11.91
2023-03-19T21:10:42.190Z,11.87
2023-03-19T21:15:49.736Z,11.82
2023-03-19T21:20:55.029Z,11.76
2023-03-19T21:25:57.923Z,11.69
2023-03-19T21:31:00.212Z,11.64
2023-03-19T21:36:03.320Z,11.58
2023-03-19T21:41:10.580Z,11.52
2023-03-19T21:46:24.276Z,11.50
2023-03-19T21:51:29.783Z,11.50
2023-03-19T21:56:37.154Z,11.52
2023-03-19T22:01:39.000Z,11.54
2023-03-19T22:06:40.876Z,11.57
2023-03-19T22:11:43.204Z,11.60
2023-03-19T22:16:46.452Z,11.61
2023-03-19T22:21:49.609Z,11.62
2023-03-19T22:26:57.406Z,11.63
2023-03-19T22:31:59.341Z,11.64
2023-03-19T22:37:01.617Z,11.64
2023-03-19T22:42:03.536Z,11.65
2023-03-19T22:47:05.508Z,11.66
2023-03-19T22:52:10.625Z,11.65
2023-03-19T22:57:17.522Z,11.66
2023-03-19T23:02:19.259Z,11.65
2023-03-19T23:07:21.292Z,11.63
2023-03-19T23:12:23.093Z,11.59
2023-03-19T23:17:24.842Z,11.53
2023-03-19T23:22:27.684Z,11.50
2023-03-19T23:27:30.347Z,11.47
2023-03-19T23:32:32.716Z,11.47
2023-03-19T23:37:34.879Z,11.47
2023-03-19T23:42:44.450Z,11.47
2023-03-19T23:47:46.375Z,11.47
2023-03-19T23:52:48.868Z,11.46
2023-03-19T23:57:51.395Z,11.46
